sensor_id;sensor_type;location;lat;lon;timestamp;P1;durP1;ratioP1;P2;durP2;ratioP2
45208;SDS011;30951;43.994;26.260;2023-06-26T00:00:13;15.98;;;7.15;;
45208;SDS011;30951;43.994;26.260;2023-06-26T00:02:39;14.93;;;7.55;;
45208;SDS011;30951;43.994;26.260;2023-06-26T00:05:05;22.33;;;7.72;;
45208;SDS011;30951;43.994;26.260;2023-06-26T00:07:30;13.15;;;6.43;;
45208;SDS011;30951;43.994;26.260;2023-06-26T00:09:59;13.63;;;6.30;;
45208;SDS011;30951;43.994;26.260;2023-06-26T00:12:25;18.40;;;6.75;;
45208;SDS011;30951;43.994;26.260;2023-06-26T00:14:50;23.10;;;8.25;;
45208;SDS011;30951;43.994;26.260;2023-06-26T00:17:16;19.73;;;7.07;;
45208;SDS011;30951;43.994;26.260;2023-06-26T00:19:41;12.93;;;6.57;;
45208;SDS011;30951;43.994;26.260;2023-06-26T00:22:07;9.40;;;5.72;;
45208;SDS011;30951;43.994;26.260;2023-06-26T00:24:32;12.05;;;5.80;;
45208;SDS011;30951;43.994;26.260;2023-06-26T00:26:58;7.93;;;5.70;;
45208;SDS011;30951;43.994;26.260;2023-06-26T00:29:24;11.10;;;5.28;;
45208;SDS011;30951;43.994;26.260;2023-06-26T00:31:49;10.95;;;5.40;;
45208;SDS011;30951;43.994;26.260;2023-06-26T00:34:15;14.27;;;5.25;;
45208;SDS011;30951;43.994;26.260;2023-06-26T00:36:40;12.23;;;5.13;;
45208;SDS011;30951;43.994;26.260;2023-06-26T00:39:09;11.35;;;4.60;;
45208;SDS011;30951;43.994;26.260;2023-06-26T00:41:35;8.45;;;4.93;;
45208;SDS011;30951;43.994;26.260;2023-06-26T00:44:02;11.63;;;4.20;;
45208;SDS011;30951;43.994;26.260;2023-06-26T00:46:28;13.73;;;5.43;;
45208;SDS011;30951;43.994;26.260;2023-06-26T00:48:54;8.27;;;4.32;;
45208;SDS011;30951;43.994;26.260;2023-06-26T00:51:20;11.10;;;5.10;;
45208;SDS011;30951;43.994;26.260;2023-06-26T00:53:45;14.95;;;4.60;;
45208;SDS011;30951;43.994;26.260;2023-06-26T00:56:11;10.43;;;5.07;;
45208;SDS011;30951;43.994;26.260;2023-06-26T00:58:36;10.90;;;4.65;;
45208;SDS011;30951;43.994;26.260;2023-06-26T01:01:02;12.02;;;5.25;;
45208;SDS011;30951;43.994;26.260;2023-06-26T01:03:28;11.43;;;5.82;;
45208;SDS011;30951;43.994;26.260;2023-06-26T01:05:55;8.48;;;5.68;;
45208;SDS011;30951;43.994;26.260;2023-06-26T01:08:22;10.27;;;5.70;;
45208;SDS011;30951;43.994;26.260;2023-06-26T01:10:48;16.52;;;5.85;;
45208;SDS011;30951;43.994;26.260;2023-06-26T01:13:14;8.75;;;5.28;;
45208;SDS011;30951;43.994;26.260;2023-06-26T01:15:40;7.55;;;5.60;;
45208;SDS011;30951;43.994;26.260;2023-06-26T01:18:06;14.85;;;5.85;;
45208;SDS011;30951;43.994;26.260;2023-06-26T01:20:32;7.63;;;5.20;;
45208;SDS011;30951;43.994;26.260;2023-06-26T01:25:43;14.20;;;6.13;;
45208;SDS011;30951;43.994;26.260;2023-06-26T01:28:28;12.52;;;5.88;;
45208;SDS011;30951;43.994;26.260;2023-06-26T01:30:54;14.20;;;6.25;;
45208;SDS011;30951;43.994;26.260;2023-06-26T01:33:20;9.95;;;6.35;;
45208;SDS011;30951;43.994;26.260;2023-06-26T01:35:45;21.75;;;6.50;;
45208;SDS011;30951;43.994;26.260;2023-06-26T01:38:12;13.80;;;7.10;;
45208;SDS011;30951;43.994;26.260;2023-06-26T01:40:39;16.13;;;7.20;;
45208;SDS011;30951;43.994;26.260;2023-06-26T01:43:06;15.38;;;7.32;;
45208;SDS011;30951;43.994;26.260;2023-06-26T01:45:31;11.65;;;7.20;;
45208;SDS011;30951;43.994;26.260;2023-06-26T01:47:57;12.05;;;6.60;;
45208;SDS011;30951;43.994;26.260;2023-06-26T01:50:26;13.02;;;6.78;;
45208;SDS011;30951;43.994;26.260;2023-06-26T01:56:03;15.00;;;7.70;;
45208;SDS011;30951;43.994;26.260;2023-06-26T01:58:33;19.00;;;7.40;;
45208;SDS011;30951;43.994;26.260;2023-06-26T02:00:59;11.05;;;6.78;;
45208;SDS011;30951;43.994;26.260;2023-06-26T02:03:25;13.40;;;7.53;;
45208;SDS011;30951;43.994;26.260;2023-06-26T02:05:51;11.52;;;6.95;;
45208;SDS011;30951;43.994;26.260;2023-06-26T02:08:17;13.15;;;6.90;;
45208;SDS011;30951;43.994;26.260;2023-06-26T02:10:42;12.82;;;6.57;;
45208;SDS011;30951;43.994;26.260;2023-06-26T02:13:08;15.18;;;6.80;;
45208;SDS011;30951;43.994;26.260;2023-06-26T02:15:33;14.98;;;6.90;;
45208;SDS011;30951;43.994;26.260;2023-06-26T02:17:59;15.40;;;6.88;;
45208;SDS011;30951;43.994;26.260;2023-06-26T02:20:24;11.68;;;6.32;;
45208;SDS011;30951;43.994;26.260;2023-06-26T02:22:50;10.13;;;6.28;;
45208;SDS011;30951;43.994;26.260;2023-06-26T02:25:15;12.07;;;6.72;;
45208;SDS011;30951;43.994;26.260;2023-06-26T02:27:41;14.25;;;6.70;;
45208;SDS011;30951;43.994;26.260;2023-06-26T02:30:08;13.15;;;7.43;;
45208;SDS011;30951;43.994;26.260;2023-06-26T02:32:34;13.15;;;6.97;;
45208;SDS011;30951;43.994;26.260;2023-06-26T02:34:59;13.38;;;6.55;;
45208;SDS011;30951;43.994;26.260;2023-06-26T02:37:25;13.95;;;7.05;;
45208;SDS011;30951;43.994;26.260;2023-06-26T02:39:50;16.10;;;7.45;;
45208;SDS011;30951;43.994;26.260;2023-06-26T02:42:16;9.38;;;6.28;;
45208;SDS011;30951;43.994;26.260;2023-06-26T02:44:41;11.35;;;6.05;;
45208;SDS011;30951;43.994;26.260;2023-06-26T02:47:07;13.60;;;6.65;;
45208;SDS011;30951;43.994;26.260;2023-06-26T02:49:32;12.43;;;5.68;;
45208;SDS011;30951;43.994;26.260;2023-06-26T02:51:58;11.80;;;6.22;;
45208;SDS011;30951;43.994;26.260;2023-06-26T02:54:23;12.02;;;5.78;;
45208;SDS011;30951;43.994;26.260;2023-06-26T02:56:49;10.40;;;5.53;;
45208;SDS011;30951;43.994;26.260;2023-06-26T02:59:14;22.67;;;6.65;;
45208;SDS011;30951;43.994;26.260;2023-06-26T03:01:40;10.32;;;6.40;;
45208;SDS011;30951;43.994;26.260;2023-06-26T03:04:05;8.05;;;5.18;;
45208;SDS011;30951;43.994;26.260;2023-06-26T03:06:31;13.82;;;5.22;;
45208;SDS011;30951;43.994;26.260;2023-06-26T03:08:56;10.82;;;5.78;;
45208;SDS011;30951;43.994;26.260;2023-06-26T03:11:21;14.43;;;5.05;;
45208;SDS011;30951;43.994;26.260;2023-06-26T03:13:47;18.08;;;5.93;;
45208;SDS011;30951;43.994;26.260;2023-06-26T03:16:12;7.72;;;5.40;;
45208;SDS011;30951;43.994;26.260;2023-06-26T03:18:38;8.45;;;5.75;;
45208;SDS011;30951;43.994;26.260;2023-06-26T03:21:04;13.60;;;6.40;;
45208;SDS011;30951;43.994;26.260;2023-06-26T03:23:29;9.45;;;5.97;;
45208;SDS011;30951;43.994;26.260;2023-06-26T03:25:55;13.13;;;5.97;;
45208;SDS011;30951;43.994;26.260;2023-06-26T03:28:20;16.13;;;5.82;;
45208;SDS011;30951;43.994;26.260;2023-06-26T03:30:46;7.80;;;5.30;;
45208;SDS011;30951;43.994;26.260;2023-06-26T03:33:11;8.60;;;5.60;;
45208;SDS011;30951;43.994;26.260;2023-06-26T03:35:37;14.98;;;6.20;;
45208;SDS011;30951;43.994;26.260;2023-06-26T03:38:03;7.50;;;6.00;;
45208;SDS011;30951;43.994;26.260;2023-06-26T03:40:29;13.13;;;5.78;;
45208;SDS011;30951;43.994;26.260;2023-06-26T03:42:55;10.85;;;5.88;;
45208;SDS011;30951;43.994;26.260;2023-06-26T03:45:20;9.38;;;5.43;;
45208;SDS011;30951;43.994;26.260;2023-06-26T03:47:45;10.35;;;5.35;;
45208;SDS011;30951;43.994;26.260;2023-06-26T03:50:18;13.27;;;6.63;;
45208;SDS011;30951;43.994;26.260;2023-06-26T03:52:44;8.20;;;5.38;;
45208;SDS011;30951;43.994;26.260;2023-06-26T03:55:10;15.77;;;5.85;;
45208;SDS011;30951;43.994;26.260;2023-06-26T03:57:36;8.70;;;5.35;;
45208;SDS011;30951;43.994;26.260;2023-06-26T04:00:02;10.93;;;5.80;;
45208;SDS011;30951;43.994;26.260;2023-06-26T04:02:33;11.20;;;5.30;;
45208;SDS011;30951;43.994;26.260;2023-06-26T04:04:58;12.18;;;5.40;;
45208;SDS011;30951;43.994;26.260;2023-06-26T04:07:25;16.20;;;5.95;;
45208;SDS011;30951;43.994;26.260;2023-06-26T04:09:51;14.93;;;6.68;;
45208;SDS011;30951;43.994;26.260;2023-06-26T04:12:16;10.77;;;6.00;;
45208;SDS011;30951;43.994;26.260;2023-06-26T04:14:42;8.18;;;6.40;;
45208;SDS011;30951;43.994;26.260;2023-06-26T04:17:07;12.63;;;6.40;;
45208;SDS011;30951;43.994;26.260;2023-06-26T04:19:33;11.23;;;5.35;;
45208;SDS011;30951;43.994;26.260;2023-06-26T04:22:01;9.10;;;5.95;;
45208;SDS011;30951;43.994;26.260;2023-06-26T04:24:26;6.55;;;5.68;;
45208;SDS011;30951;43.994;26.260;2023-06-26T04:26:52;11.70;;;6.10;;
45208;SDS011;30951;43.994;26.260;2023-06-26T04:29:17;8.05;;;5.80;;
45208;SDS011;30951;43.994;26.260;2023-06-26T04:31:43;13.00;;;5.95;;
45208;SDS011;30951;43.994;26.260;2023-06-26T04:34:12;14.27;;;5.85;;
45208;SDS011;30951;43.994;26.260;2023-06-26T04:36:38;14.07;;;8.20;;
45208;SDS011;30951;43.994;26.260;2023-06-26T04:39:04;36.35;;;9.27;;
45208;SDS011;30951;43.994;26.260;2023-06-26T04:41:30;14.65;;;8.18;;
45208;SDS011;30951;43.994;26.260;2023-06-26T04:43:55;21.45;;;8.65;;
45208;SDS011;30951;43.994;26.260;2023-06-26T04:46:21;22.40;;;8.38;;
45208;SDS011;30951;43.994;26.260;2023-06-26T04:48:46;15.27;;;7.82;;
45208;SDS011;30951;43.994;26.260;2023-06-26T04:51:12;12.40;;;7.80;;
45208;SDS011;30951;43.994;26.260;2023-06-26T04:53:37;20.05;;;7.90;;
45208;SDS011;30951;43.994;26.260;2023-06-26T04:56:03;18.20;;;8.63;;
45208;SDS011;30951;43.994;26.260;2023-06-26T04:58:28;15.57;;;7.95;;
45208;SDS011;30951;43.994;26.260;2023-06-26T05:00:54;16.52;;;8.23;;
45208;SDS011;30951;43.994;26.260;2023-06-26T05:03:20;18.27;;;7.50;;
45208;SDS011;30951;43.994;26.260;2023-06-26T05:05:45;16.83;;;8.00;;
45208;SDS011;30951;43.994;26.260;2023-06-26T05:08:24;14.27;;;7.00;;
45208;SDS011;30951;43.994;26.260;2023-06-26T05:10:51;11.40;;;6.97;;
45208;SDS011;30951;43.994;26.260;2023-06-26T05:13:25;17.90;;;9.65;;
45208;SDS011;30951;43.994;26.260;2023-06-26T05:15:51;22.40;;;10.80;;
45208;SDS011;30951;43.994;26.260;2023-06-26T05:18:17;13.43;;;7.05;;
45208;SDS011;30951;43.994;26.260;2023-06-26T05:20:43;29.75;;;20.27;;
45208;SDS011;30951;43.994;26.260;2023-06-26T05:23:10;20.38;;;8.40;;
45208;SDS011;30951;43.994;26.260;2023-06-26T05:25:36;13.88;;;5.70;;
45208;SDS011;30951;43.994;26.260;2023-06-26T05:28:02;10.63;;;5.50;;
45208;SDS011;30951;43.994;26.260;2023-06-26T05:30:30;14.10;;;5.47;;
45208;SDS011;30951;43.994;26.260;2023-06-26T05:32:56;11.85;;;5.90;;
45208;SDS011;30951;43.994;26.260;2023-06-26T05:35:24;18.13;;;6.38;;
45208;SDS011;30951;43.994;26.260;2023-06-26T05:37:54;10.43;;;5.43;;
45208;SDS011;30951;43.994;26.260;2023-06-26T05:40:20;11.35;;;6.35;;
45208;SDS011;30951;43.994;26.260;2023-06-26T05:42:46;9.95;;;6.30;;
45208;SDS011;30951;43.994;26.260;2023-06-26T05:45:12;15.43;;;7.15;;
45208;SDS011;30951;43.994;26.260;2023-06-26T05:47:37;18.42;;;6.25;;
45208;SDS011;30951;43.994;26.260;2023-06-26T05:50:03;15.63;;;6.03;;
45208;SDS011;30951;43.994;26.260;2023-06-26T05:52:29;10.10;;;5.75;;
45208;SDS011;30951;43.994;26.260;2023-06-26T05:54:55;17.15;;;5.68;;
45208;SDS011;30951;43.994;26.260;2023-06-26T05:57:25;17.85;;;6.10;;
45208;SDS011;30951;43.994;26.260;2023-06-26T05:59:54;9.23;;;4.63;;
45208;SDS011;30951;43.994;26.260;2023-06-26T06:02:20;9.85;;;5.07;;
45208;SDS011;30951;43.994;26.260;2023-06-26T06:04:45;11.05;;;4.65;;
45208;SDS011;30951;43.994;26.260;2023-06-26T06:07:11;14.25;;;5.43;;
45208;SDS011;30951;43.994;26.260;2023-06-26T06:09:36;11.98;;;5.22;;
45208;SDS011;30951;43.994;26.260;2023-06-26T06:12:03;41.38;;;27.35;;
45208;SDS011;30951;43.994;26.260;2023-06-26T06:14:32;14.27;;;8.45;;
45208;SDS011;30951;43.994;26.260;2023-06-26T06:16:58;15.77;;;7.00;;
45208;SDS011;30951;43.994;26.260;2023-06-26T06:19:24;16.92;;;8.73;;
45208;SDS011;30951;43.994;26.260;2023-06-26T06:21:49;12.10;;;4.82;;
45208;SDS011;30951;43.994;26.260;2023-06-26T06:24:15;11.07;;;5.15;;
45208;SDS011;30951;43.994;26.260;2023-06-26T06:26:40;11.00;;;6.50;;
45208;SDS011;30951;43.994;26.260;2023-06-26T06:29:06;11.02;;;5.22;;
45208;SDS011;30951;43.994;26.260;2023-06-26T06:31:31;11.65;;;4.78;;
45208;SDS011;30951;43.994;26.260;2023-06-26T06:33:57;8.48;;;5.05;;
45208;SDS011;30951;43.994;26.260;2023-06-26T06:36:22;10.32;;;4.90;;
45208;SDS011;30951;43.994;26.260;2023-06-26T06:38:48;15.32;;;6.25;;
45208;SDS011;30951;43.994;26.260;2023-06-26T06:41:13;13.68;;;5.53;;
45208;SDS011;30951;43.994;26.260;2023-06-26T06:43:39;12.05;;;5.38;;
45208;SDS011;30951;43.994;26.260;2023-06-26T06:46:05;13.43;;;5.50;;
45208;SDS011;30951;43.994;26.260;2023-06-26T06:48:31;9.93;;;5.55;;
45208;SDS011;30951;43.994;26.260;2023-06-26T06:50:56;10.07;;;4.68;;
45208;SDS011;30951;43.994;26.260;2023-06-26T06:53:22;12.23;;;4.75;;
45208;SDS011;30951;43.994;26.260;2023-06-26T06:55:48;15.20;;;5.00;;
45208;SDS011;30951;43.994;26.260;2023-06-26T06:58:14;8.52;;;4.65;;
45208;SDS011;30951;43.994;26.260;2023-06-26T07:00:42;9.27;;;4.20;;
45208;SDS011;30951;43.994;26.260;2023-06-26T07:03:07;6.57;;;4.40;;
45208;SDS011;30951;43.994;26.260;2023-06-26T07:05:33;8.07;;;4.32;;
45208;SDS011;30951;43.994;26.260;2023-06-26T07:07:58;8.90;;;4.78;;
45208;SDS011;30951;43.994;26.260;2023-06-26T07:10:24;9.77;;;3.28;;
45208;SDS011;30951;43.994;26.260;2023-06-26T07:12:49;3.53;;;3.00;;
45208;SDS011;30951;43.994;26.260;2023-06-26T07:15:15;7.28;;;2.88;;
45208;SDS011;30951;43.994;26.260;2023-06-26T07:17:40;5.65;;;3.08;;
45208;SDS011;30951;43.994;26.260;2023-06-26T07:20:06;7.80;;;3.55;;
45208;SDS011;30951;43.994;26.260;2023-06-26T07:22:33;6.13;;;3.60;;
45208;SDS011;30951;43.994;26.260;2023-06-26T07:24:59;4.88;;;3.10;;
45208;SDS011;30951;43.994;26.260;2023-06-26T07:27:25;3.78;;;2.72;;
45208;SDS011;30951;43.994;26.260;2023-06-26T07:29:50;3.80;;;2.90;;
45208;SDS011;30951;43.994;26.260;2023-06-26T07:32:16;5.47;;;3.58;;
45208;SDS011;30951;43.994;26.260;2023-06-26T07:34:41;4.88;;;2.85;;
45208;SDS011;30951;43.994;26.260;2023-06-26T07:37:07;3.63;;;3.30;;
45208;SDS011;30951;43.994;26.260;2023-06-26T07:39:32;6.68;;;3.50;;
45208;SDS011;30951;43.994;26.260;2023-06-26T07:41:58;3.42;;;3.13;;
45208;SDS011;30951;43.994;26.260;2023-06-26T07:44:24;6.13;;;3.17;;
45208;SDS011;30951;43.994;26.260;2023-06-26T07:46:50;3.92;;;2.97;;
45208;SDS011;30951;43.994;26.260;2023-06-26T07:49:15;4.13;;;3.08;;
45208;SDS011;30951;43.994;26.260;2023-06-26T07:51:41;5.65;;;3.08;;
45208;SDS011;30951;43.994;26.260;2023-06-26T07:54:06;6.53;;;3.28;;
45208;SDS011;30951;43.994;26.260;2023-06-26T07:56:35;4.88;;;3.42;;
45208;SDS011;30951;43.994;26.260;2023-06-26T07:59:27;4.20;;;3.30;;
45208;SDS011;30951;43.994;26.260;2023-06-26T08:01:54;4.70;;;3.10;;
45208;SDS011;30951;43.994;26.260;2023-06-26T08:04:20;6.82;;;4.07;;
45208;SDS011;30951;43.994;26.260;2023-06-26T08:06:48;4.85;;;3.60;;
45208;SDS011;30951;43.994;26.260;2023-06-26T08:09:14;8.20;;;3.28;;
45208;SDS011;30951;43.994;26.260;2023-06-26T08:11:39;6.68;;;3.08;;
45208;SDS011;30951;43.994;26.260;2023-06-26T08:14:05;6.63;;;3.58;;
45208;SDS011;30951;43.994;26.260;2023-06-26T08:16:30;8.43;;;3.35;;
45208;SDS011;30951;43.994;26.260;2023-06-26T08:18:55;6.70;;;3.45;;
45208;SDS011;30951;43.994;26.260;2023-06-26T08:21:21;6.28;;;3.38;;
45208;SDS011;30951;43.994;26.260;2023-06-26T08:23:46;7.00;;;2.72;;
45208;SDS011;30951;43.994;26.260;2023-06-26T08:26:13;4.47;;;3.20;;
45208;SDS011;30951;43.994;26.260;2023-06-26T08:28:38;7.18;;;3.58;;
45208;SDS011;30951;43.994;26.260;2023-06-26T08:31:04;8.93;;;3.10;;
45208;SDS011;30951;43.994;26.260;2023-06-26T08:33:29;3.92;;;3.17;;
45208;SDS011;30951;43.994;26.260;2023-06-26T08:35:55;5.40;;;2.80;;
45208;SDS011;30951;43.994;26.260;2023-06-26T08:38:20;11.70;;;3.35;;
45208;SDS011;30951;43.994;26.260;2023-06-26T08:40:46;6.93;;;3.42;;
45208;SDS011;30951;43.994;26.260;2023-06-26T08:43:12;4.40;;;3.15;;
45208;SDS011;30951;43.994;26.260;2023-06-26T08:45:38;6.30;;;2.92;;
45208;SDS011;30951;43.994;26.260;2023-06-26T08:48:03;2.97;;;2.67;;
45208;SDS011;30951;43.994;26.260;2023-06-26T08:50:33;5.82;;;2.78;;
45208;SDS011;30951;43.994;26.260;2023-06-26T08:53:21;6.35;;;2.97;;
45208;SDS011;30951;43.994;26.260;2023-06-26T08:55:55;6.07;;;2.85;;
45208;SDS011;30951;43.994;26.260;2023-06-26T08:58:22;5.75;;;2.70;;
45208;SDS011;30951;43.994;26.260;2023-06-26T09:00:48;4.70;;;3.20;;
45208;SDS011;30951;43.994;26.260;2023-06-26T09:03:14;4.30;;;3.10;;
45208;SDS011;30951;43.994;26.260;2023-06-26T09:05:41;4.82;;;2.70;;
45208;SDS011;30951;43.994;26.260;2023-06-26T09:08:07;4.03;;;2.63;;
45208;SDS011;30951;43.994;26.260;2023-06-26T09:10:32;4.18;;;3.15;;
45208;SDS011;30951;43.994;26.260;2023-06-26T09:12:59;4.38;;;3.20;;
45208;SDS011;30951;43.994;26.260;2023-06-26T09:15:26;4.32;;;2.67;;
45208;SDS011;30951;43.994;26.260;2023-06-26T09:17:57;4.97;;;3.38;;
45208;SDS011;30951;43.994;26.260;2023-06-26T09:20:24;7.00;;;3.10;;
45208;SDS011;30951;43.994;26.260;2023-06-26T09:22:55;5.10;;;2.92;;
45208;SDS011;30951;43.994;26.260;2023-06-26T09:25:21;7.15;;;3.17;;
45208;SDS011;30951;43.994;26.260;2023-06-26T09:27:48;3.58;;;2.97;;
45208;SDS011;30951;43.994;26.260;2023-06-26T09:30:16;6.13;;;3.13;;
45208;SDS011;30951;43.994;26.260;2023-06-26T09:32:42;3.63;;;2.75;;
45208;SDS011;30951;43.994;26.260;2023-06-26T09:35:07;5.32;;;2.60;;
45208;SDS011;30951;43.994;26.260;2023-06-26T09:37:34;3.55;;;2.70;;
45208;SDS011;30951;43.994;26.260;2023-06-26T09:40:00;4.80;;;2.85;;
45208;SDS011;30951;43.994;26.260;2023-06-26T09:42:25;3.72;;;2.85;;
45208;SDS011;30951;43.994;26.260;2023-06-26T09:44:50;2.95;;;2.65;;
45208;SDS011;30951;43.994;26.260;2023-06-26T09:47:16;2.97;;;2.63;;
45208;SDS011;30951;43.994;26.260;2023-06-26T09:49:44;3.00;;;2.42;;
45208;SDS011;30951;43.994;26.260;2023-06-26T09:52:11;5.82;;;2.85;;
45208;SDS011;30951;43.994;26.260;2023-06-26T09:54:40;3.70;;;3.13;;
45208;SDS011;30951;43.994;26.260;2023-06-26T09:57:09;2.35;;;2.13;;
45208;SDS011;30951;43.994;26.260;2023-06-26T09:59:35;3.20;;;2.80;;
45208;SDS011;30951;43.994;26.260;2023-06-26T10:02:01;7.50;;;2.97;;
45208;SDS011;30951;43.994;26.260;2023-06-26T10:04:26;4.20;;;2.60;;
45208;SDS011;30951;43.994;26.260;2023-06-26T10:06:52;4.68;;;3.05;;
45208;SDS011;30951;43.994;26.260;2023-06-26T10:09:21;3.85;;;2.67;;
45208;SDS011;30951;43.994;26.260;2023-06-26T10:11:55;2.65;;;2.45;;
45208;SDS011;30951;43.994;26.260;2023-06-26T10:14:22;2.92;;;2.47;;
45208;SDS011;30951;43.994;26.260;2023-06-26T10:16:51;5.53;;;2.60;;
45208;SDS011;30951;43.994;26.260;2023-06-26T10:19:18;3.00;;;2.70;;
45208;SDS011;30951;43.994;26.260;2023-06-26T10:21:50;2.70;;;2.45;;
45208;SDS011;30951;43.994;26.260;2023-06-26T10:24:17;2.90;;;2.70;;
45208;SDS011;30951;43.994;26.260;2023-06-26T10:26:44;3.65;;;2.55;;
45208;SDS011;30951;43.994;26.260;2023-06-26T10:29:11;2.50;;;2.30;;
45208;SDS011;30951;43.994;26.260;2023-06-26T10:31:38;2.47;;;2.28;;
45208;SDS011;30951;43.994;26.260;2023-06-26T10:34:06;4.32;;;2.92;;
45208;SDS011;30951;43.994;26.260;2023-06-26T10:36:31;3.88;;;3.08;;
45208;SDS011;30951;43.994;26.260;2023-06-26T10:38:58;3.13;;;2.47;;
45208;SDS011;30951;43.994;26.260;2023-06-26T10:41:30;3.75;;;2.60;;
45208;SDS011;30951;43.994;26.260;2023-06-26T10:46:27;2.83;;;2.50;;
45208;SDS011;30951;43.994;26.260;2023-06-26T10:48:58;4.03;;;2.15;;
45208;SDS011;30951;43.994;26.260;2023-06-26T10:51:28;2.50;;;2.22;;
45208;SDS011;30951;43.994;26.260;2023-06-26T10:53:54;5.18;;;2.40;;
45208;SDS011;30951;43.994;26.260;2023-06-26T10:56:20;2.88;;;2.42;;
45208;SDS011;30951;43.994;26.260;2023-06-26T10:58:47;2.72;;;2.47;;
45208;SDS011;30951;43.994;26.260;2023-06-26T11:01:20;3.45;;;2.50;;
45208;SDS011;30951;43.994;26.260;2023-06-26T11:03:48;2.60;;;2.40;;
45208;SDS011;30951;43.994;26.260;2023-06-26T11:06:17;2.45;;;2.15;;
45208;SDS011;30951;43.994;26.260;2023-06-26T11:08:50;3.97;;;2.40;;
45208;SDS011;30951;43.994;26.260;2023-06-26T11:14:21;4.78;;;2.33;;
45208;SDS011;30951;43.994;26.260;2023-06-26T11:19:14;2.42;;;2.22;;
45208;SDS011;30951;43.994;26.260;2023-06-26T11:21:41;2.47;;;2.28;;
45208;SDS011;30951;43.994;26.260;2023-06-26T11:24:07;2.38;;;2.17;;
45208;SDS011;30951;43.994;26.260;2023-06-26T11:26:42;2.50;;;2.30;;
45208;SDS011;30951;43.994;26.260;2023-06-26T11:29:09;3.05;;;2.13;;
45208;SDS011;30951;43.994;26.260;2023-06-26T11:31:36;3.15;;;2.55;;
45208;SDS011;30951;43.994;26.260;2023-06-26T11:34:04;4.10;;;2.00;;
45208;SDS011;30951;43.994;26.260;2023-06-26T11:36:32;4.60;;;2.50;;
45208;SDS011;30951;43.994;26.260;2023-06-26T11:39:03;3.37;;;2.30;;
45208;SDS011;30951;43.994;26.260;2023-06-26T11:41:31;2.58;;;2.20;;
45208;SDS011;30951;43.994;26.260;2023-06-26T11:44:01;2.67;;;2.47;;
45208;SDS011;30951;43.994;26.260;2023-06-26T11:46:31;8.00;;;2.78;;
45208;SDS011;30951;43.994;26.260;2023-06-26T11:48:57;2.85;;;2.30;;
45208;SDS011;30951;43.994;26.260;2023-06-26T11:51:23;3.05;;;2.55;;
45208;SDS011;30951;43.994;26.260;2023-06-26T11:53:48;4.47;;;2.70;;
45208;SDS011;30951;43.994;26.260;2023-06-26T11:56:15;2.38;;;2.17;;
45208;SDS011;30951;43.994;26.260;2023-06-26T12:01:35;3.67;;;2.40;;
45208;SDS011;30951;43.994;26.260;2023-06-26T12:06:31;7.60;;;2.33;;
45208;SDS011;30951;43.994;26.260;2023-06-26T12:09:00;6.38;;;2.40;;
45208;SDS011;30951;43.994;26.260;2023-06-26T12:11:27;4.55;;;2.08;;
45208;SDS011;30951;43.994;26.260;2023-06-26T12:13:53;4.40;;;2.22;;
45208;SDS011;30951;43.994;26.260;2023-06-26T12:16:19;2.17;;;1.95;;
45208;SDS011;30951;43.994;26.260;2023-06-26T12:18:45;2.65;;;2.42;;
45208;SDS011;30951;43.994;26.260;2023-06-26T12:24:09;2.45;;;2.25;;
45208;SDS011;30951;43.994;26.260;2023-06-26T12:26:42;2.58;;;2.08;;
45208;SDS011;30951;43.994;26.260;2023-06-26T12:29:09;2.75;;;2.15;;
45208;SDS011;30951;43.994;26.260;2023-06-26T12:31:39;3.75;;;2.10;;
45208;SDS011;30951;43.994;26.260;2023-06-26T12:34:09;3.67;;;2.38;;
45208;SDS011;30951;43.994;26.260;2023-06-26T12:36:49;3.20;;;2.15;;
45208;SDS011;30951;43.994;26.260;2023-06-26T12:39:25;7.85;;;2.50;;
45208;SDS011;30951;43.994;26.260;2023-06-26T12:41:54;3.05;;;2.30;;
45208;SDS011;30951;43.994;26.260;2023-06-26T12:44:21;2.40;;;2.20;;
45208;SDS011;30951;43.994;26.260;2023-06-26T12:46:49;5.53;;;2.60;;
45208;SDS011;30951;43.994;26.260;2023-06-26T12:49:15;4.20;;;2.72;;
45208;SDS011;30951;43.994;26.260;2023-06-26T12:51:41;3.80;;;2.80;;
45208;SDS011;30951;43.994;26.260;2023-06-26T12:54:08;4.30;;;2.97;;
45208;SDS011;30951;43.994;26.260;2023-06-26T12:56:34;8.60;;;3.67;;
45208;SDS011;30951;43.994;26.260;2023-06-26T12:58:59;9.57;;;4.00;;
45208;SDS011;30951;43.994;26.260;2023-06-26T13:01:26;10.20;;;4.93;;
45208;SDS011;30951;43.994;26.260;2023-06-26T13:03:52;14.88;;;4.00;;
45208;SDS011;30951;43.994;26.260;2023-06-26T13:06:17;4.90;;;3.08;;
45208;SDS011;30951;43.994;26.260;2023-06-26T13:08:43;5.43;;;3.45;;
45208;SDS011;30951;43.994;26.260;2023-06-26T13:11:09;7.43;;;4.00;;
45208;SDS011;30951;43.994;26.260;2023-06-26T13:13:34;13.27;;;4.10;;
45208;SDS011;30951;43.994;26.260;2023-06-26T13:16:00;10.45;;;5.28;;
45208;SDS011;30951;43.994;26.260;2023-06-26T13:18:25;7.68;;;5.22;;
45208;SDS011;30951;43.994;26.260;2023-06-26T13:20:51;7.00;;;5.22;;
45208;SDS011;30951;43.994;26.260;2023-06-26T13:23:17;7.85;;;5.13;;
45208;SDS011;30951;43.994;26.260;2023-06-26T13:25:44;10.60;;;5.38;;
45208;SDS011;30951;43.994;26.260;2023-06-26T13:28:10;7.72;;;4.28;;
45208;SDS011;30951;43.994;26.260;2023-06-26T13:30:35;15.68;;;4.60;;
45208;SDS011;30951;43.994;26.260;2023-06-26T13:33:01;7.13;;;4.25;;
45208;SDS011;30951;43.994;26.260;2023-06-26T13:35:26;9.98;;;4.90;;
45208;SDS011;30951;43.994;26.260;2023-06-26T13:37:52;15.60;;;5.22;;
45208;SDS011;30951;43.994;26.260;2023-06-26T13:40:17;4.80;;;3.53;;
45208;SDS011;30951;43.994;26.260;2023-06-26T13:42:43;6.68;;;3.50;;
45208;SDS011;30951;43.994;26.260;2023-06-26T13:45:09;6.35;;;3.53;;
45208;SDS011;30951;43.994;26.260;2023-06-26T13:47:35;5.22;;;3.35;;
45208;SDS011;30951;43.994;26.260;2023-06-26T13:50:03;7.43;;;3.45;;
45208;SDS011;30951;43.994;26.260;2023-06-26T13:52:29;4.93;;;3.38;;
45208;SDS011;30951;43.994;26.260;2023-06-26T13:54:55;9.68;;;3.97;;
45208;SDS011;30951;43.994;26.260;2023-06-26T13:57:20;4.28;;;3.67;;
45208;SDS011;30951;43.994;26.260;2023-06-26T13:59:47;6.10;;;3.90;;
45208;SDS011;30951;43.994;26.260;2023-06-26T14:02:13;4.78;;;3.47;;
45208;SDS011;30951;43.994;26.260;2023-06-26T14:04:39;4.97;;;3.58;;
45208;SDS011;30951;43.994;26.260;2023-06-26T14:07:05;7.45;;;3.83;;
45208;SDS011;30951;43.994;26.260;2023-06-26T14:09:31;6.15;;;3.67;;
45208;SDS011;30951;43.994;26.260;2023-06-26T14:11:56;5.53;;;3.67;;
45208;SDS011;30951;43.994;26.260;2023-06-26T14:14:22;7.80;;;4.60;;
45208;SDS011;30951;43.994;26.260;2023-06-26T14:16:48;3.88;;;3.58;;
45208;SDS011;30951;43.994;26.260;2023-06-26T14:19:14;4.70;;;3.65;;
45208;SDS011;30951;43.994;26.260;2023-06-26T14:21:42;5.30;;;3.53;;
45208;SDS011;30951;43.994;26.260;2023-06-26T14:24:08;5.28;;;3.28;;
45208;SDS011;30951;43.994;26.260;2023-06-26T14:26:34;4.25;;;3.25;;
45208;SDS011;30951;43.994;26.260;2023-06-26T14:28:59;5.97;;;3.47;;
45208;SDS011;30951;43.994;26.260;2023-06-26T14:31:25;3.38;;;2.83;;
45208;SDS011;30951;43.994;26.260;2023-06-26T14:33:51;4.72;;;4.13;;
45208;SDS011;30951;43.994;26.260;2023-06-26T14:36:17;3.97;;;2.97;;
45208;SDS011;30951;43.994;26.260;2023-06-26T14:38:42;6.18;;;3.33;;
45208;SDS011;30951;43.994;26.260;2023-06-26T14:41:08;7.13;;;3.08;;
45208;SDS011;30951;43.994;26.260;2023-06-26T14:43:33;2.90;;;2.70;;
45208;SDS011;30951;43.994;26.260;2023-06-26T14:45:59;3.17;;;2.60;;